sensor_id;sensor_type;location;lat;lon;timestamp;temperature;humidity
37310;DHT22;23195;47.744;7.358;2024-02-15T00:07:44;8.00;99.90
37310;DHT22;23195;47.744;7.358;2024-02-15T00:14:03;7.70;99.90
37310;DHT22;23195;47.744;7.358;2024-02-15T00:20:50;7.60;99.90
37310;DHT22;23195;47.744;7.358;2024-02-15T00:23:42;7.60;99.90
37310;DHT22;23195;47.744;7.358;2024-02-15T00:33:31;7.40;99.90
37310;DHT22;23195;47.744;7.358;2024-02-15T00:39:55;8.80;99.90
37310;DHT22;23195;47.744;7.358;2024-02-15T00:43:05;7.30;99.90
37310;DHT22;23195;47.744;7.358;2024-02-15T00:46:28;7.20;99.90
37310;DHT22;23195;47.744;7.358;2024-02-15T00:49:29;7.20;99.90
37310;DHT22;23195;47.744;7.358;2024-02-15T00:52:28;7.10;99.90
37310;DHT22;23195;47.744;7.358;2024-02-15T00:55:07;7.00;99.90
37310;DHT22;23195;47.744;7.358;2024-02-15T00:57:55;7.00;99.90
37310;DHT22;23195;47.744;7.358;2024-02-15T01:04:36;6.90;99.90
37310;DHT22;23195;47.744;7.358;2024-02-15T01:07:46;6.90;99.90
37310;DHT22;23195;47.744;7.358;2024-02-15T01:14:00;5.50;99.90
37310;DHT22;23195;47.744;7.358;2024-02-15T01:20:11;6.70;99.90
37310;DHT22;23195;47.744;7.358;2024-02-15T01:23:16;6.70;99.90
37310;DHT22;23195;47.744;7.358;2024-02-15T01:32:52;6.60;99.90
37310;DHT22;23195;47.744;7.358;2024-02-15T01:35:43;6.30;99.90
37310;DHT22;23195;47.744;7.358;2024-02-15T01:45:16;6.30;99.90
37310;DHT22;23195;47.744;7.358;2024-02-15T01:48:25;6.40;99.90
37310;DHT22;23195;47.744;7.358;2024-02-15T01:54:26;6.50;99.90
37310;DHT22;23195;47.744;7.358;2024-02-15T01:57:23;6.40;99.90
37310;DHT22;23195;47.744;7.358;2024-02-15T02:00:27;6.40;99.90
37310;DHT22;23195;47.744;7.358;2024-02-15T02:23:47;6.50;99.90
37310;DHT22;23195;47.744;7.358;2024-02-15T02:26:51;6.50;99.90
37310;DHT22;23195;47.744;7.358;2024-02-15T02:29:49;5.80;99.90
37310;DHT22;23195;47.744;7.358;2024-02-15T02:39:23;5.40;99.90
37310;DHT22;23195;47.744;7.358;2024-02-15T02:46:06;5.60;99.90
37310;DHT22;23195;47.744;7.358;2024-02-15T03:12:28;6.10;99.90
37310;DHT22;23195;47.744;7.358;2024-02-15T03:15:35;5.80;99.90
37310;DHT22;23195;47.744;7.358;2024-02-15T03:28:43;5.80;99.90
37310;DHT22;23195;47.744;7.358;2024-02-15T03:37:44;5.70;99.90
37310;DHT22;23195;47.744;7.358;2024-02-15T03:40:53;5.70;99.90
37310;DHT22;23195;47.744;7.358;2024-02-15T03:50:57;5.30;99.90
37310;DHT22;23195;47.744;7.358;2024-02-15T04:01:02;5.60;99.90
37310;DHT22;23195;47.744;7.358;2024-02-15T04:07:13;5.50;99.90
37310;DHT22;23195;47.744;7.358;2024-02-15T04:10:25;5.60;99.90
37310;DHT22;23195;47.744;7.358;2024-02-15T04:41:01;6.00;99.90
37310;DHT22;23195;47.744;7.358;2024-02-15T04:50:18;5.90;99.90
37310;DHT22;23195;47.744;7.358;2024-02-15T04:53:50;5.80;99.90
37310;DHT22;23195;47.744;7.358;2024-02-15T04:57:01;6.20;99.90
37310;DHT22;23195;47.744;7.358;2024-02-15T05:07:45;5.90;99.90
37310;DHT22;23195;47.744;7.358;2024-02-15T05:17:25;6.00;99.90
37310;DHT22;23195;47.744;7.358;2024-02-15T05:28:53;5.90;99.90
37310;DHT22;23195;47.744;7.358;2024-02-15T05:31:45;5.60;99.90
37310;DHT22;23195;47.744;7.358;2024-02-15T05:35:03;5.90;99.90
37310;DHT22;23195;47.744;7.358;2024-02-15T05:37:57;5.20;99.90
37310;DHT22;23195;47.744;7.358;2024-02-15T05:40:39;5.80;99.90
37310;DHT22;23195;47.744;7.358;2024-02-15T05:55:32;5.10;99.90
37310;DHT22;23195;47.744;7.358;2024-02-15T06:01:31;5.60;99.90
37310;DHT22;23195;47.744;7.358;2024-02-15T06:07:55;5.60;99.90
37310;DHT22;23195;47.744;7.358;2024-02-15T06:14:08;5.60;99.90
37310;DHT22;23195;47.744;7.358;2024-02-15T06:17:15;5.60;99.90
37310;DHT22;23195;47.744;7.358;2024-02-15T06:20:18;5.50;99.90
37310;DHT22;23195;47.744;7.358;2024-02-15T06:26:44;5.60;99.90
37310;DHT22;23195;47.744;7.358;2024-02-15T06:29:29;5.70;99.90
37310;DHT22;23195;47.744;7.358;2024-02-15T06:32:21;5.80;99.90
37310;DHT22;23195;47.744;7.358;2024-02-15T06:35:08;5.80;99.90
37310;DHT22;23195;47.744;7.358;2024-02-15T06:57:22;6.20;99.90
37310;DHT22;23195;47.744;7.358;2024-02-15T07:00:09;6.40;99.90
37310;DHT22;23195;47.744;7.358;2024-02-15T07:02:36;6.40;99.90
37310;DHT22;23195;47.744;7.358;2024-02-15T07:05:11;6.50;99.90
37310;DHT22;23195;47.744;7.358;2024-02-15T07:07:37;6.60;99.90
37310;DHT22;23195;47.744;7.358;2024-02-15T07:10:05;6.70;99.90
37310;DHT22;23195;47.744;7.358;2024-02-15T07:12:31;6.70;99.90
37310;DHT22;23195;47.744;7.358;2024-02-15T07:14:58;7.00;99.90
37310;DHT22;23195;47.744;7.358;2024-02-15T07:17:42;6.40;99.90
37310;DHT22;23195;47.744;7.358;2024-02-15T07:20:19;7.50;99.90
37310;DHT22;23195;47.744;7.358;2024-02-15T07:23:14;7.80;99.90
37310;DHT22;23195;47.744;7.358;2024-02-15T07:26:09;8.00;99.90
37310;DHT22;23195;47.744;7.358;2024-02-15T07:28:42;8.20;99.90
37310;DHT22;23195;47.744;7.358;2024-02-15T07:31:22;8.40;99.90
37310;DHT22;23195;47.744;7.358;2024-02-15T07:33:59;8.50;99.90
37310;DHT22;23195;47.744;7.358;2024-02-15T07:36:42;8.60;99.90
37310;DHT22;23195;47.744;7.358;2024-02-15T07:39:11;8.70;99.90
37310;DHT22;23195;47.744;7.358;2024-02-15T07:41:49;8.80;99.90
37310;DHT22;23195;47.744;7.358;2024-02-15T07:44:45;7.70;99.90
37310;DHT22;23195;47.744;7.358;2024-02-15T07:47:15;8.20;99.90
37310;DHT22;23195;47.744;7.358;2024-02-15T07:53:14;9.10;99.90
37310;DHT22;23195;47.744;7.358;2024-02-15T07:55:50;9.10;99.90
37310;DHT22;23195;47.744;7.358;2024-02-15T07:58:56;9.10;99.90
37310;DHT22;23195;47.744;7.358;2024-02-15T08:01:44;9.50;99.90
37310;DHT22;23195;47.744;7.358;2024-02-15T08:04:21;9.30;99.90
37310;DHT22;23195;47.744;7.358;2024-02-15T08:07:01;9.40;99.90
37310;DHT22;23195;47.744;7.358;2024-02-15T08:12:33;8.60;99.90
37310;DHT22;23195;47.744;7.358;2024-02-15T08:15:11;9.50;99.90
37310;DHT22;23195;47.744;7.358;2024-02-15T08:17:59;9.40;99.90
37310;DHT22;23195;47.744;7.358;2024-02-15T08:20:45;9.50;99.90
37310;DHT22;23195;47.744;7.358;2024-02-15T08:23:39;9.70;99.90
37310;DHT22;23195;47.744;7.358;2024-02-15T08:26:15;9.80;99.90
37310;DHT22;23195;47.744;7.358;2024-02-15T08:29:06;10.00;99.90
37310;DHT22;23195;47.744;7.358;2024-02-15T08:31:58;11.20;99.90
37310;DHT22;23195;47.744;7.358;2024-02-15T08:34:55;10.20;99.90
37310;DHT22;23195;47.744;7.358;2024-02-15T08:37:40;9.00;99.90
37310;DHT22;23195;47.744;7.358;2024-02-15T08:46:57;10.70;99.90
37310;DHT22;23195;47.744;7.358;2024-02-15T08:49:28;10.70;99.90
37310;DHT22;23195;47.744;7.358;2024-02-15T08:54:56;10.80;99.90
37310;DHT22;23195;47.744;7.358;2024-02-15T08:57:33;10.80;99.90
37310;DHT22;23195;47.744;7.358;2024-02-15T09:00:15;10.90;99.90
37310;DHT22;23195;47.744;7.358;2024-02-15T09:05:53;11.00;99.90
37310;DHT22;23195;47.744;7.358;2024-02-15T09:08:34;10.90;99.90
37310;DHT22;23195;47.744;7.358;2024-02-15T09:11:16;11.00;99.90
37310;DHT22;23195;47.744;7.358;2024-02-15T09:13:55;11.10;99.90
37310;DHT22;23195;47.744;7.358;2024-02-15T09:16:23;12.50;99.90
37310;DHT22;23195;47.744;7.358;2024-02-15T09:19:02;11.00;99.90
37310;DHT22;23195;47.744;7.358;2024-02-15T09:21:43;10.70;99.90
37310;DHT22;23195;47.744;7.358;2024-02-15T09:24:25;11.20;99.90
37310;DHT22;23195;47.744;7.358;2024-02-15T09:27:02;11.20;99.90
37310;DHT22;23195;47.744;7.358;2024-02-15T09:29:39;11.20;99.90
37310;DHT22;23195;47.744;7.358;2024-02-15T09:32:08;11.10;99.90
37310;DHT22;23195;47.744;7.358;2024-02-15T09:34:44;11.10;99.90
37310;DHT22;23195;47.744;7.358;2024-02-15T09:37:28;11.20;99.90
37310;DHT22;23195;47.744;7.358;2024-02-15T09:40:09;11.50;99.90
37310;DHT22;23195;47.744;7.358;2024-02-15T09:42:54;11.70;99.90
37310;DHT22;23195;47.744;7.358;2024-02-15T09:45:36;11.90;99.90
37310;DHT22;23195;47.744;7.358;2024-02-15T09:48:14;12.00;99.90
37310;DHT22;23195;47.744;7.358;2024-02-15T09:50:52;12.00;99.90
37310;DHT22;23195;47.744;7.358;2024-02-15T09:53:26;11.70;99.90
37310;DHT22;23195;47.744;7.358;2024-02-15T09:55:54;11.30;99.90
37310;DHT22;23195;47.744;7.358;2024-02-15T09:58:38;11.70;99.90
37310;DHT22;23195;47.744;7.358;2024-02-15T10:01:20;11.80;99.90
37310;DHT22;23195;47.744;7.358;2024-02-15T10:04:05;11.40;99.90
37310;DHT22;23195;47.744;7.358;2024-02-15T10:07:04;12.10;99.90
37310;DHT22;23195;47.744;7.358;2024-02-15T10:09:34;12.10;99.90
37310;DHT22;23195;47.744;7.358;2024-02-15T10:12:21;12.20;99.90
37310;DHT22;23195;47.744;7.358;2024-02-15T10:15:07;11.90;99.90
37310;DHT22;23195;47.744;7.358;2024-02-15T10:20:59;12.40;99.90
37310;DHT22;23195;47.744;7.358;2024-02-15T10:23:25;12.40;99.90
37310;DHT22;23195;47.744;7.358;2024-02-15T10:25:54;12.60;99.90
37310;DHT22;23195;47.744;7.358;2024-02-15T10:28:28;12.70;99.90
37310;DHT22;23195;47.744;7.358;2024-02-15T10:31:07;12.80;99.90
37310;DHT22;23195;47.744;7.358;2024-02-15T10:37:33;12.90;99.90
37310;DHT22;23195;47.744;7.358;2024-02-15T10:40:16;13.10;99.90
37310;DHT22;23195;47.744;7.358;2024-02-15T10:43:10;13.10;99.90
37310;DHT22;23195;47.744;7.358;2024-02-15T10:46:01;13.20;99.90
37310;DHT22;23195;47.744;7.358;2024-02-15T10:48:42;12.80;99.90
37310;DHT22;23195;47.744;7.358;2024-02-15T10:51:23;13.30;99.90
37310;DHT22;23195;47.744;7.358;2024-02-15T10:54:05;13.50;99.90
37310;DHT22;23195;47.744;7.358;2024-02-15T10:57:03;13.60;99.90
37310;DHT22;23195;47.744;7.358;2024-02-15T10:59:55;13.80;99.90
37310;DHT22;23195;47.744;7.358;2024-02-15T11:03:24;13.80;99.90
37310;DHT22;23195;47.744;7.358;2024-02-15T11:06:08;13.90;99.90
37310;DHT22;23195;47.744;7.358;2024-02-15T11:09:30;14.00;99.90
37310;DHT22;23195;47.744;7.358;2024-02-15T11:12:09;14.20;99.90
37310;DHT22;23195;47.744;7.358;2024-02-15T11:14:48;14.30;99.90
37310;DHT22;23195;47.744;7.358;2024-02-15T11:23:10;14.70;99.90
37310;DHT22;23195;47.744;7.358;2024-02-15T11:25:41;14.70;99.90
37310;DHT22;23195;47.744;7.358;2024-02-15T11:30:57;15.00;99.90
37310;DHT22;23195;47.744;7.358;2024-02-15T11:33:52;15.10;99.90
37310;DHT22;23195;47.744;7.358;2024-02-15T11:36:33;15.20;99.90
37310;DHT22;23195;47.744;7.358;2024-02-15T11:39:44;15.30;99.90
37310;DHT22;23195;47.744;7.358;2024-02-15T11:42:36;15.20;99.90
37310;DHT22;23195;47.744;7.358;2024-02-15T11:45:08;15.20;99.90
37310;DHT22;23195;47.744;7.358;2024-02-15T11:48:00;14.90;99.90
37310;DHT22;23195;47.744;7.358;2024-02-15T11:50:59;15.40;99.90
37310;DHT22;23195;47.744;7.358;2024-02-15T11:53:43;15.50;99.90
37310;DHT22;23195;47.744;7.358;2024-02-15T11:59:56;15.70;99.90
37310;DHT22;23195;47.744;7.358;2024-02-15T12:02:54;15.60;99.90
37310;DHT22;23195;47.744;7.358;2024-02-15T12:05:52;15.80;99.90
37310;DHT22;23195;47.744;7.358;2024-02-15T12:12:09;15.80;99.90
37310;DHT22;23195;47.744;7.358;2024-02-15T12:18:56;15.90;99.60
37310;DHT22;23195;47.744;7.358;2024-02-15T12:21:26;16.10;99.90
37310;DHT22;23195;47.744;7.358;2024-02-15T12:24:13;16.30;99.60
37310;DHT22;23195;47.744;7.358;2024-02-15T12:27:02;16.10;98.70
37310;DHT22;23195;47.744;7.358;2024-02-15T12:30:07;16.10;98.80
37310;DHT22;23195;47.744;7.358;2024-02-15T12:32:59;15.90;99.10
37310;DHT22;23195;47.744;7.358;2024-02-15T12:41:39;15.90;99.20
37310;DHT22;23195;47.744;7.358;2024-02-15T12:47:07;16.30;98.70
37310;DHT22;23195;47.744;7.358;2024-02-15T12:49:43;16.30;98.00
37310;DHT22;23195;47.744;7.358;2024-02-15T12:52:38;16.40;97.90
37310;DHT22;23195;47.744;7.358;2024-02-15T12:56:00;16.20;97.60
37310;DHT22;23195;47.744;7.358;2024-02-15T12:58:42;16.20;97.10
37310;DHT22;23195;47.744;7.358;2024-02-15T13:01:08;16.30;96.90
37310;DHT22;23195;47.744;7.358;2024-02-15T13:04:01;16.40;96.70
37310;DHT22;23195;47.744;7.358;2024-02-15T13:06:36;16.20;96.30
37310;DHT22;23195;47.744;7.358;2024-02-15T13:09:22;16.50;96.20
37310;DHT22;23195;47.744;7.358;2024-02-15T13:11:53;16.50;96.60
37310;DHT22;23195;47.744;7.358;2024-02-15T13:14:23;16.60;96.60
37310;DHT22;23195;47.744;7.358;2024-02-15T13:17:07;16.50;96.90
37310;DHT22;23195;47.744;7.358;2024-02-15T13:22:44;16.60;96.00
37310;DHT22;23195;47.744;7.358;2024-02-15T13:25:29;16.60;96.10
37310;DHT22;23195;47.744;7.358;2024-02-15T13:28:18;16.00;95.60
37310;DHT22;23195;47.744;7.358;2024-02-15T13:31:07;16.50;95.50
37310;DHT22;23195;47.744;7.358;2024-02-15T13:37:01;16.50;95.50
37310;DHT22;23195;47.744;7.358;2024-02-15T13:39:40;16.50;95.50
37310;DHT22;23195;47.744;7.358;2024-02-15T13:45:19;16.30;95.60
37310;DHT22;23195;47.744;7.358;2024-02-15T13:47:58;16.30;95.40
37310;DHT22;23195;47.744;7.358;2024-02-15T13:50:46;16.30;95.50
37310;DHT22;23195;47.744;7.358;2024-02-15T13:53:18;16.20;95.10
37310;DHT22;23195;47.744;7.358;2024-02-15T13:56:04;16.40;95.30
37310;DHT22;23195;47.744;7.358;2024-02-15T13:58:48;16.40;95.00
37310;DHT22;23195;47.744;7.358;2024-02-15T14:05:10;16.30;95.70
37310;DHT22;23195;47.744;7.358;2024-02-15T14:08:03;16.20;96.60
37310;DHT22;23195;47.744;7.358;2024-02-15T14:10:56;16.20;96.40
37310;DHT22;23195;47.744;7.358;2024-02-15T14:17:18;16.20;97.20
37310;DHT22;23195;47.744;7.358;2024-02-15T14:20:05;16.20;97.40
37310;DHT22;23195;47.744;7.358;2024-02-15T14:22:50;16.20;98.00
37310;DHT22;23195;47.744;7.358;2024-02-15T14:25:32;16.20;98.10
37310;DHT22;23195;47.744;7.358;2024-02-15T14:31:54;16.00;98.00
37310;DHT22;23195;47.744;7.358;2024-02-15T14:34:59;16.20;98.70
37310;DHT22;23195;47.744;7.358;2024-02-15T14:37:37;17.20;98.40
37310;DHT22;23195;47.744;7.358;2024-02-15T14:40:08;16.40;97.80
37310;DHT22;23195;47.744;7.358;2024-02-15T14:42:49;16.30;97.60
37310;DHT22;23195;47.744;7.358;2024-02-15T14:46:11;16.30;98.10
37310;DHT22;23195;47.744;7.358;2024-02-15T14:48:54;16.30;98.20
37310;DHT22;23195;47.744;7.358;2024-02-15T14:51:33;16.30;98.60
37310;DHT22;23195;47.744;7.358;2024-02-15T14:54:20;16.20;98.20
37310;DHT22;23195;47.744;7.358;2024-02-15T14:56:51;16.00;98.50
37310;DHT22;23195;47.744;7.358;2024-02-15T15:02:20;15.90;98.70
37310;DHT22;23195;47.744;7.358;2024-02-15T15:04:58;15.90;98.70
37310;DHT22;23195;47.744;7.358;2024-02-15T15:07:48;15.80;99.20
37310;DHT22;23195;47.744;7.358;2024-02-15T15:14:02;15.60;99.30
37310;DHT22;23195;47.744;7.358;2024-02-15T15:16:50;15.60;99.30
37310;DHT22;23195;47.744;7.358;2024-02-15T15:22:26;15.60;99.60
37310;DHT22;23195;47.744;7.358;2024-02-15T15:27:41;15.50;99.90
37310;DHT22;23195;47.744;7.358;2024-02-15T15:30:41;15.40;99.90
37310;DHT22;23195;47.744;7.358;2024-02-15T15:33:24;15.40;99.90
37310;DHT22;23195;47.744;7.358;2024-02-15T15:36:08;15.30;99.90
37310;DHT22;23195;47.744;7.358;2024-02-15T15:38:49;14.30;99.90
37310;DHT22;23195;47.744;7.358;2024-02-15T15:41:19;15.20;99.90
37310;DHT22;23195;47.744;7.358;2024-02-15T15:43:48;15.40;99.90
37310;DHT22;23195;47.744;7.358;2024-02-15T15:46:28;15.10;99.90
37310;DHT22;23195;47.744;7.358;2024-02-15T15:49:35;14.80;99.90
37310;DHT22;23195;47.744;7.358;2024-02-15T15:52:03;14.90;99.90
37310;DHT22;23195;47.744;7.358;2024-02-15T15:54:34;14.90;99.90
37310;DHT22;23195;47.744;7.358;2024-02-15T15:57:09;14.70;99.90
37310;DHT22;23195;47.744;7.358;2024-02-15T16:25:14;13.90;99.90
37310;DHT22;23195;47.744;7.358;2024-02-15T16:30:56;13.80;99.90
37310;DHT22;23195;47.744;7.358;2024-02-15T16:33:51;13.60;99.90
37310;DHT22;23195;47.744;7.358;2024-02-15T16:36:30;13.50;99.90
37310;DHT22;23195;47.744;7.358;2024-02-15T16:39:00;13.40;99.90
37310;DHT22;23195;47.744;7.358;2024-02-15T16:41:54;13.20;99.90
37310;DHT22;23195;47.744;7.358;2024-02-15T16:44:58;13.30;99.90
37310;DHT22;23195;47.744;7.358;2024-02-15T16:47:53;13.10;99.90
37310;DHT22;23195;47.744;7.358;2024-02-15T16:50:54;12.00;99.90
37310;DHT22;23195;47.744;7.358;2024-02-15T16:53:27;12.40;99.90
37310;DHT22;23195;47.744;7.358;2024-02-15T16:55:58;12.50;99.90
37310;DHT22;23195;47.744;7.358;2024-02-15T16:58:46;13.20;99.90
37310;DHT22;23195;47.744;7.358;2024-02-15T17:01:25;12.60;99.90
37310;DHT22;23195;47.744;7.358;2024-02-15T17:03:59;12.60;99.90
37310;DHT22;23195;47.744;7.358;2024-02-15T17:06:37;12.50;99.90
37310;DHT22;23195;47.744;7.358;2024-02-15T17:09:40;12.40;99.90
37310;DHT22;23195;47.744;7.358;2024-02-15T17:15:39;12.30;99.90
37310;DHT22;23195;47.744;7.358;2024-02-15T17:18:24;12.30;99.90
37310;DHT22;23195;47.744;7.358;2024-02-15T17:20:50;12.30;99.90
37310;DHT22;23195;47.744;7.358;2024-02-15T17:23:36;12.30;99.90
37310;DHT22;23195;47.744;7.358;2024-02-15T17:26:44;11.80;99.90
37310;DHT22;23195;47.744;7.358;2024-02-15T17:29:21;12.20;99.90
37310;DHT22;23195;47.744;7.358;2024-02-15T17:32:14;12.20;99.90
37310;DHT22;23195;47.744;7.358;2024-02-15T17:34:53;12.10;99.90
37310;DHT22;23195;47.744;7.358;2024-02-15T17:37:29;12.00;99.90
37310;DHT22;23195;47.744;7.358;2024-02-15T17:40:20;11.90;99.90
37310;DHT22;23195;47.744;7.358;2024-02-15T17:43:33;11.90;99.90
37310;DHT22;23195;47.744;7.358;2024-02-15T17:46:46;11.80;99.90
37310;DHT22;23195;47.744;7.358;2024-02-15T17:49:22;11.70;99.90
37310;DHT22;23195;47.744;7.358;2024-02-15T17:52:07;11.70;99.90
37310;DHT22;23195;47.744;7.358;2024-02-15T17:55:07;11.70;99.90
37310;DHT22;23195;47.744;7.358;2024-02-15T17:58:25;11.70;99.90
37310;DHT22;23195;47.744;7.358;2024-02-15T18:03:52;11.70;99.90
37310;DHT22;23195;47.744;7.358;2024-02-15T18:09:22;11.60;99.90
37310;DHT22;23195;47.744;7.358;2024-02-15T18:11:51;11.70;99.90
37310;DHT22;23195;47.744;7.358;2024-02-15T18:14:51;11.60;99.90
37310;DHT22;23195;47.744;7.358;2024-02-15T18:17:28;11.60;99.90
37310;DHT22;23195;47.744;7.358;2024-02-15T18:20:12;11.60;99.90
37310;DHT22;23195;47.744;7.358;2024-02-15T18:22:51;11.60;99.90
37310;DHT22;23195;47.744;7.358;2024-02-15T18:25:27;11.60;99.90
37310;DHT22;23195;47.744;7.358;2024-02-15T18:28:21;11.60;99.90
37310;DHT22;23195;47.744;7.358;2024-02-15T18:31:01;11.50;99.90
37310;DHT22;23195;47.744;7.358;2024-02-15T18:33:35;11.40;99.90
37310;DHT22;23195;47.744;7.358;2024-02-15T18:36:14;11.30;99.90
37310;DHT22;23195;47.744;7.358;2024-02-15T18:38:51;11.30;99.90
37310;DHT22;23195;47.744;7.358;2024-02-15T18:41:45;11.20;99.90
37310;DHT22;23195;47.744;7.358;2024-02-15T18:44:12;11.00;99.90
37310;DHT22;23195;47.744;7.358;2024-02-15T18:46:54;11.10;99.90
37310;DHT22;23195;47.744;7.358;2024-02-15T18:49:21;10.00;99.90
37310;DHT22;23195;47.744;7.358;2024-02-15T18:51:49;10.90;99.90
37310;DHT22;23195;47.744;7.358;2024-02-15T18:54:45;10.90;99.90
37310;DHT22;23195;47.744;7.358;2024-02-15T18:57:27;10.80;99.90
37310;DHT22;23195;47.744;7.358;2024-02-15T18:59:58;10.80;99.90
37310;DHT22;23195;47.744;7.358;2024-02-15T19:02:29;10.70;99.90
37310;DHT22;23195;47.744;7.358;2024-02-15T19:04:56;10.70;99.90
37310;DHT22;23195;47.744;7.358;2024-02-15T19:07:45;10.60;99.90
37310;DHT22;23195;47.744;7.358;2024-02-15T19:10:24;10.60;99.90
37310;DHT22;23195;47.744;7.358;2024-02-15T19:12:50;10.50;99.90
37310;DHT22;23195;47.744;7.358;2024-02-15T19:15:25;10.50;99.90
37310;DHT22;23195;47.744;7.358;2024-02-15T19:18:01;10.40;99.90
37310;DHT22;23195;47.744;7.358;2024-02-15T19:20:27;10.40;99.90
37310;DHT22;23195;47.744;7.358;2024-02-15T19:22:55;10.40;99.90
37310;DHT22;23195;47.744;7.358;2024-02-15T19:25:34;10.30;99.90
37310;DHT22;23195;47.744;7.358;2024-02-15T19:28:02;10.30;99.90
37310;DHT22;23195;47.744;7.358;2024-02-15T19:30:43;10.30;99.90
37310;DHT22;23195;47.744;7.358;2024-02-15T19:33:12;10.30;99.90
37310;DHT22;23195;47.744;7.358;2024-02-15T19:35:51;10.40;99.90
37310;DHT22;23195;47.744;7.358;2024-02-15T19:38:20;10.70;99.90
37310;DHT22;23195;47.744;7.358;2024-02-15T19:40:59;10.30;99.90
37310;DHT22;23195;47.744;7.358;2024-02-15T19:43:44;10.50;99.90
37310;DHT22;23195;47.744;7.358;2024-02-15T19:46:29;10.40;99.90
37310;DHT22;23195;47.744;7.358;2024-02-15T19:48:59;10.40;99.90
37310;DHT22;23195;47.744;7.358;2024-02-15T19:51:34;10.50;99.90
37310;DHT22;23195;47.744;7.358;2024-02-15T19:54:00;10.40;99.90
37310;DHT22;23195;47.744;7.358;2024-02-15T19:56:40;10.40;99.90
37310;DHT22;23195;47.744;7.358;2024-02-15T19:59:22;10.40;99.90
37310;DHT22;23195;47.744;7.358;2024-02-15T20:01:50;10.80;99.90
37310;DHT22;23195;47.744;7.358;2024-02-15T20:04:23;10.40;99.90
37310;DHT22;23195;47.744;7.358;2024-02-15T20:06:49;10.00;99.90
37310;DHT22;23195;47.744;7.358;2024-02-15T20:09:15;10.40;99.90
37310;DHT22;23195;47.744;7.358;2024-02-15T20:11:51;9.90;99.90
37310;DHT22;23195;47.744;7.358;2024-02-15T20:14:17;10.50;99.90
37310;DHT22;23195;47.744;7.358;2024-02-15T20:16:59;10.50;99.90
37310;DHT22;23195;47.744;7.358;2024-02-15T20:19:37;9.60;99.90
37310;DHT22;23195;47.744;7.358;2024-02-15T20:22:08;10.50;99.90
37310;DHT22;23195;47.744;7.358;2024-02-15T20:24:47;10.40;99.90
37310;DHT22;23195;47.744;7.358;2024-02-15T20:27:23;10.50;99.90
37310;DHT22;23195;47.744;7.358;2024-02-15T20:30:04;10.50;99.90
37310;DHT22;23195;47.744;7.358;2024-02-15T20:32:46;10.50;99.90
37310;DHT22;23195;47.744;7.358;2024-02-15T20:35:24;10.50;99.90
37310;DHT22;23195;47.744;7.358;2024-02-15T20:38:04;10.50;99.90
37310;DHT22;23195;47.744;7.358;2024-02-15T20:40:31;10.40;99.90
37310;DHT22;23195;47.744;7.358;2024-02-15T20:43:15;10.40;99.90
37310;DHT22;23195;47.744;7.358;2024-02-15T20:46:04;10.40;99.90
37310;DHT22;23195;47.744;7.358;2024-02-15T20:48:43;10.30;99.90
37310;DHT22;23195;47.744;7.358;2024-02-15T20:51:39;10.30;99.90
37310;DHT22;23195;47.744;7.358;2024-02-15T20:54:08;10.20;99.90
37310;DHT22;23195;47.744;7.358;2024-02-15T20:57:02;10.20;99.90
37310;DHT22;23195;47.744;7.358;2024-02-15T20:59:47;9.70;99.90
37310;DHT22;23195;47.744;7.358;2024-02-15T21:02:33;9.80;99.90
37310;DHT22;23195;47.744;7.358;2024-02-15T21:05:01;10.10;99.90
37310;DHT22;23195;47.744;7.358;2024-02-15T21:07:42;10.20;99.90
37310;DHT22;23195;47.744;7.358;2024-02-15T21:10:18;10.20;99.90
37310;DHT22;23195;47.744;7.358;2024-02-15T21:13:05;9.00;99.90
37310;DHT22;23195;47.744;7.358;2024-02-15T21:15:48;10.10;99.90
37310;DHT22;23195;47.744;7.358;2024-02-15T21:18:32;10.10;99.90
37310;DHT22;23195;47.744;7.358;2024-02-15T21:21:10;10.00;99.90
37310;DHT22;23195;47.744;7.358;2024-02-15T21:24:03;10.00;99.90
37310;DHT22;23195;47.744;7.358;2024-02-15T21:26:46;9.90;99.90
37310;DHT22;23195;47.744;7.358;2024-02-15T21:29:14;10.00;99.90
37310;DHT22;23195;47.744;7.358;2024-02-15T21:31:42;10.00;99.90
37310;DHT22;23195;47.744;7.358;2024-02-15T21:34:25;10.00;99.90
37310;DHT22;23195;47.744;7.358;2024-02-15T21:37:08;10.00;99.90
37310;DHT22;23195;47.744;7.358;2024-02-15T21:39:43;9.80;99.90
37310;DHT22;23195;47.744;7.358;2024-02-15T21:42:22;10.70;99.90
37310;DHT22;23195;47.744;7.358;2024-02-15T21:44:59;10.10;99.90
37310;DHT22;23195;47.744;7.358;2024-02-15T21:47:31;10.10;99.90
37310;DHT22;23195;47.744;7.358;2024-02-15T21:50:00;10.10;99.90
37310;DHT22;23195;47.744;7.358;2024-02-15T21:52:59;10.20;99.90
37310;DHT22;23195;47.744;7.358;2024-02-15T21:55:45;10.20;99.90
37310;DHT22;23195;47.744;7.358;2024-02-15T21:58:26;10.20;99.90
37310;DHT22;23195;47.744;7.358;2024-02-15T22:01:28;10.20;99.90
37310;DHT22;23195;47.744;7.358;2024-02-15T22:03:56;10.30;99.90
37310;DHT22;23195;47.744;7.358;2024-02-15T22:06:25;10.30;99.90
37310;DHT22;23195;47.744;7.358;2024-02-15T22:09:05;10.30;99.90
37310;DHT22;23195;47.744;7.358;2024-02-15T22:11:39;10.40;99.90
37310;DHT22;23195;47.744;7.358;2024-02-15T22:14:07;10.30;99.90
37310;DHT22;23195;47.744;7.358;2024-02-15T22:16:40;10.30;99.90
37310;DHT22;23195;47.744;7.358;2024-02-15T22:19:12;10.40;99.90
37310;DHT22;23195;47.744;7.358;2024-02-15T22:21:41;10.40;99.90
37310;DHT22;23195;47.744;7.358;2024-02-15T22:24:20;10.40;99.90
37310;DHT22;23195;47.744;7.358;2024-02-15T22:26:48;10.40;99.90
37310;DHT22;23195;47.744;7.358;2024-02-15T22:29:29;10.40;99.90
37310;DHT22;23195;47.744;7.358;2024-02-15T22:32:14;10.40;99.90
37310;DHT22;23195;47.744;7.358;2024-02-15T22:34:47;10.30;99.90
37310;DHT22;23195;47.744;7.358;2024-02-15T22:37:25;10.30;99.90
37310;DHT22;23195;47.744;7.358;2024-02-15T22:40:09;10.20;99.90
37310;DHT22;23195;47.744;7.358;2024-02-15T22:43:12;10.20;99.90
37310;DHT22;23195;47.744;7.358;2024-02-15T22:46:00;10.60;99.90
37310;DHT22;23195;47.744;7.358;2024-02-15T22:48:29;10.00;99.90
37310;DHT22;23195;47.744;7.358;2024-02-15T22:51:13;9.80;99.90
37310;DHT22;23195;47.744;7.358;2024-02-15T22:53:43;9.90;99.90
37310;DHT22;23195;47.744;7.358;2024-02-15T22:56:16;9.80;99.90
37310;DHT22;23195;47.744;7.358;2024-02-15T22:58:50;9.80;99.90
37310;DHT22;23195;47.744;7.358;2024-02-15T23:01:30;9.50;99.90
37310;DHT22;23195;47.744;7.358;2024-02-15T23:04:03;9.80;99.90
37310;DHT22;23195;47.744;7.358;2024-02-15T23:06:39;9.70;99.90
37310;DHT22;23195;47.744;7.358;2024-02-15T23:09:15;9.80;99.90
37310;DHT22;23195;47.744;7.358;2024-02-15T23:12:04;9.70;99.90
37310;DHT22;23195;47.744;7.358;2024-02-15T23:14:47;9.70;99.90
37310;DHT22;23195;47.744;7.358;2024-02-15T23:20:22;9.80;99.90
37310;DHT22;23195;47.744;7.358;2024-02-15T23:23:16;9.90;99.90
37310;DHT22;23195;47.744;7.358;2024-02-15T23:25:50;9.90;99.90
37310;DHT22;23195;47.744;7.358;2024-02-15T23:28:27;10.20;99.90